Time;durP1;ratioP1;P1;durP2;ratioP2;P2;SDS_P1;SDS_P2;PMS_P1;PMS_P2;Temp;Humidity;BMP_temperature;BMP_pressure;BME280_temperature;BME280_humidity;BME280_pressure;Samples;Min_cycle;Max_cycle;Signal;HPM_P1;HPM_P2
2021/01/21 00:02:13;;;;;;;79.00;39.92;;;;;;;-0.31;80.61;98050.52;2124125;84;21613;-91
2021/01/21 00:05:15;;;;;;;71.20;35.98;;;;;;;-0.35;80.64;98049.97;2124001;84;21182;-91
2021/01/21 00:08:17;;;;;;;83.62;41.33;;;;;;;-0.40;80.54;98048.23;2124535;84;21652;-94
2021/01/21 00:11:18;;;;;;;81.95;38.23;;;;;;;-0.47;80.55;98043.25;2125026;84;21289;-94
2021/01/21 00:14:20;;;;;;;83.55;39.63;;;;;;;-0.51;80.69;98052.64;2123849;84;21190;-94
2021/01/21 00:17:22;;;;;;;78.67;39.55;;;;;;;-0.57;80.60;98047.05;2123815;84;21638;-94
2021/01/21 00:20:23;;;;;;;71.28;37.58;;;;;;;-0.60;80.54;98047.30;2123969;84;21161;-94
2021/01/21 00:23:25;;;;;;;82.50;40.63;;;;;;;-0.63;80.58;98050.61;2123975;84;21589;-94
2021/01/21 00:26:27;;;;;;;77.17;38.60;;;;;;;-0.67;80.60;98049.21;2123741;84;21181;-96
2021/01/21 00:29:29;;;;;;;79.87;39.45;;;;;;;-0.71;80.84;98037.09;2123980;84;21173;-96
2021/01/21 00:32:30;;;;;;;71.47;35.92;;;;;;;-0.72;80.81;98044.94;2123959;84;21182;-96
2021/01/21 00:35:33;;;;;;;70.17;37.30;;;;;;;-0.75;80.87;98036.16;2124043;84;21353;-96
2021/01/21 00:38:34;;;;;;;82.97;39.60;;;;;;;-0.79;80.79;98035.61;2123893;84;21201;-93
2021/01/21 00:41:36;;;;;;;76.28;36.93;;;;;;;-0.81;80.82;98027.69;2123726;84;21676;-93
2021/01/21 00:44:38;;;;;;;77.17;37.60;;;;;;;-0.84;80.80;98027.44;2125764;84;21340;-91
2021/01/21 00:47:40;;;;;;;74.70;35.75;;;;;;;-0.86;80.82;98031.42;2127698;84;21604;-93
2021/01/21 00:50:41;;;;;;;71.28;34.48;;;;;;;-0.85;80.81;98020.67;2127436;84;21547;-92
2021/01/21 00:53:43;;;;;;;69.92;35.03;;;;;;;-0.89;80.88;98022.69;2126384;84;21311;-91
2021/01/21 00:56:44;;;;;;;69.35;36.23;;;;;;;-0.93;80.86;98035.89;2124240;84;21750;-92
2021/01/21 00:59:46;;;;;;;78.42;37.13;;;;;;;-0.95;80.93;98027.50;2124650;84;21305;-96
2021/01/21 01:02:48;;;;;;;65.47;32.93;;;;;;;-1.03;80.99;98019.13;2124233;84;21173;-95
2021/01/21 01:05:50;;;;;;;64.32;32.80;;;;;;;-0.98;81.03;98029.86;2125116;84;21313;-96
2021/01/21 01:08:51;;;;;;;73.20;34.65;;;;;;;-1.00;81.06;98040.73;2124341;84;21281;-95
2021/01/21 01:11:53;;;;;;;68.35;36.10;;;;;;;-1.06;81.01;98025.80;2124111;84;21150;-95
2021/01/21 01:14:55;;;;;;;74.77;33.40;;;;;;;-1.06;80.97;98021.13;2124401;84;21189;-95
2021/01/21 01:17:57;;;;;;;68.30;33.55;;;;;;;-1.07;81.08;98024.64;2124154;84;21170;-95
2021/01/21 01:20:59;;;;;;;68.47;34.27;;;;;;;-1.13;81.23;98015.66;2123940;84;21194;-95
2021/01/21 01:24:00;;;;;;;64.75;33.42;;;;;;;-1.13;81.25;98019.52;2124144;84;21190;-94
2021/01/21 01:27:02;;;;;;;59.08;29.42;;;;;;;-1.16;81.19;98020.58;2124564;84;21315;-94
2021/01/21 01:30:04;;;;;;;64.05;33.55;;;;;;;-1.15;81.25;98020.11;2124334;84;21130;-94
2021/01/21 01:33:05;;;;;;;59.40;30.92;;;;;;;-1.18;81.37;98008.34;2124107;84;21157;-94
2021/01/21 01:36:07;;;;;;;64.27;33.67;;;;;;;-1.20;81.41;98010.66;2124300;84;21732;-94
2021/01/21 01:39:09;;;;;;;69.03;34.10;;;;;;;-1.24;81.43;98007.53;2124034;83;21201;-95
2021/01/21 01:42:11;;;;;;;64.58;32.33;;;;;;;-1.27;81.59;98003.94;2124392;84;21195;-94
2021/01/21 01:45:12;;;;;;;51.42;27.30;;;;;;;-1.28;81.79;97998.89;2124544;84;21304;-94
2021/01/21 01:48:14;;;;;;;57.62;29.02;;;;;;;-1.28;81.83;97997.61;2099646;84;21161;-94
2021/01/21 01:51:16;;;;;;;64.65;31.10;;;;;;;-1.31;81.73;97990.97;2124087;84;21157;-94
2021/01/21 01:54:17;;;;;;;62.75;30.02;;;;;;;-1.31;81.80;97992.26;2124103;84;21161;-94
2021/01/21 01:57:19;;;;;;;66.40;30.80;;;;;;;-1.30;81.68;97985.36;2124636;84;21615;-95
2021/01/21 02:00:20;;;;;;;55.38;29.32;;;;;;;-1.30;81.96;97981.05;2124089;84;21155;-95
2021/01/21 02:03:22;;;;;;;60.00;29.77;;;;;;;-1.29;82.00;97977.53;2124239;84;21138;-94
2021/01/21 02:06:23;;;;;;;57.85;28.15;;;;;;;-1.28;81.81;97977.06;2124104;84;21605;-95
2021/01/21 02:09:25;;;;;;;61.30;30.25;;;;;;;-1.28;81.90;97979.63;2124015;84;21130;-94
2021/01/21 02:12:26;;;;;;;50.30;28.38;;;;;;;-1.29;81.83;97989.09;2124392;84;21332;-94
2021/01/21 02:15:28;;;;;;;60.90;29.27;;;;;;;-1.29;81.93;97989.56;2125295;84;21304;-95
2021/01/21 02:18:30;;;;;;;54.80;28.20;;;;;;;-1.29;81.79;97994.70;2127139;83;21265;-93
2021/01/21 02:21:31;;;;;;;53.65;26.97;;;;;;;-1.30;81.81;97994.36;2127871;83;21489;-93
2021/01/21 02:24:33;;;;;;;62.75;30.12;;;;;;;-1.37;81.76;97985.06;2127712;83;21289;-93
2021/01/21 02:27:34;;;;;;;60.33;31.30;;;;;;;-1.38;81.71;97983.41;2125296;83;21343;-94
2021/01/21 02:30:36;;;;;;;56.60;29.65;;;;;;;-1.31;81.78;97990.16;2123983;84;21609;-94
2021/01/21 02:33:37;;;;;;;56.42;30.15;;;;;;;-1.34;81.74;97992.98;2124003;84;21165;-94
2021/01/21 02:36:39;;;;;;;58.87;29.82;;;;;;;-1.35;81.71;97990.07;2123914;84;21186;-93
2021/01/21 02:39:41;;;;;;;56.48;28.45;;;;;;;-1.38;81.75;97992.39;2130392;81;21170;-93
2021/01/21 02:42:42;;;;;;;48.25;24.30;;;;;;;-1.40;81.77;97984.47;2094036;84;21281;-93
2021/01/21 02:45:44;;;;;;;55.00;26.85;;;;;;;-1.42;81.62;97987.64;2131160;81;21119;-93
2021/01/21 02:48:46;;;;;;;55.92;29.95;;;;;;;-1.46;81.90;97988.36;2092307;84;21318;-94
2021/01/21 02:51:48;;;;;;;54.03;30.02;;;;;;;-1.52;81.82;97996.54;2127362;84;21161;-93
2021/01/21 02:54:49;;;;;;;54.50;28.98;;;;;;;-1.53;81.85;97988.49;2090395;85;21345;-94
2021/01/21 02:57:51;;;;;;;59.18;29.90;;;;;;;-1.53;81.85;97994.44;2128026;84;21311;-94
2021/01/21 03:00:53;;;;;;;59.58;29.48;;;;;;;-1.55;81.68;97990.38;2090169;85;21324;-94
2021/01/21 03:03:54;;;;;;;55.48;28.75;;;;;;;-1.58;81.78;97997.02;2127149;84;21185;-95
2021/01/21 03:06:56;;;;;;;57.13;29.57;;;;;;;-1.61;81.81;98001.11;2090820;85;21312;-95
2021/01/21 03:09:57;;;;;;;59.73;28.35;;;;;;;-1.66;81.79;98004.03;2127809;84;21303;-93
2021/01/21 03:12:59;;;;;;;55.98;28.57;;;;;;;-1.70;81.81;97996.70;2090064;85;21304;-95
2021/01/21 03:16:00;;;;;;;57.53;29.95;;;;;;;-1.72;81.96;97991.69;2127258;84;21315;-94
2021/01/21 03:19:02;;;;;;;58.68;28.77;;;;;;;-1.74;81.91;97987.13;2090358;85;21166;-95
2021/01/21 03:22:04;;;;;;;57.08;29.63;;;;;;;-1.80;81.96;97985.87;2098897;84;21339;-95
2021/01/21 03:25:06;;;;;;;57.62;28.85;;;;;;;-1.73;81.93;97990.06;2090679;85;21308;-94
2021/01/21 03:28:07;;;;;;;57.40;28.70;;;;;;;-1.74;81.82;97994.82;2127459;84;21732;-94
2021/01/21 03:31:09;;;;;;;51.30;27.52;;;;;;;-1.77;81.85;98004.87;2090274;85;21321;-94
2021/01/21 03:34:11;;;;;;;58.35;28.57;;;;;;;-1.81;81.92;97999.64;2127281;84;21292;-95
2021/01/21 03:37:12;;;;;;;55.98;28.70;;;;;;;-1.81;81.92;98002.67;2091083;84;21186;-93
2021/01/21 03:40:14;;;;;;;50.10;25.95;;;;;;;-1.83;82.01;97997.66;2182767;81;21257;-94
2021/01/21 03:43:15;;;;;;;56.35;28.85;;;;;;;-1.84;81.86;97999.05;2183171;81;21212;-94
2021/01/21 03:46:17;;;;;;;50.48;27.52;;;;;;;-1.85;81.94;97991.81;2123966;84;21162;-94
2021/01/21 03:49:19;;;;;;;55.67;27.48;;;;;;;-1.88;82.01;97995.91;2113449;84;21178;-95
2021/01/21 03:52:20;;;;;;;48.17;26.05;;;;;;;-1.89;82.00;97999.88;2182439;81;21316;-93
2021/01/21 03:55:22;;;;;;;51.20;25.85;;;;;;;-1.93;82.01;97994.16;2182974;81;21288;-93
2021/01/21 03:58:23;;;;;;;53.80;27.15;;;;;;;-1.94;82.01;97996.37;2123908;84;21153;-92
2021/01/21 04:01:25;;;;;;;50.70;27.02;;;;;;;-1.95;82.13;98002.91;2113294;84;21162;-93
2021/01/21 04:04:27;;;;;;;46.37;26.87;;;;;;;-1.95;82.19;97998.59;2183348;81;21304;-93
2021/01/21 04:07:28;;;;;;;48.60;25.30;;;;;;;-1.97;82.32;97999.19;2182576;82;21297;-93
2021/01/21 04:10:30;;;;;;;50.80;26.40;;;;;;;-1.97;82.34;97997.09;2123995;84;21165;-95
2021/01/21 04:13:31;;;;;;;56.53;30.60;;;;;;;-1.96;82.29;97996.97;2113204;84;21589;-93
2021/01/21 04:16:33;;;;;;;54.27;28.87;;;;;;;-1.95;82.21;97987.05;2182370;81;21742;-92
2021/01/21 04:19:34;;;;;;;60.12;31.42;;;;;;;-1.94;82.06;97991.24;2182373;81;21308;-92
2021/01/21 04:22:36;;;;;;;56.13;30.25;;;;;;;-1.98;81.89;97983.45;2123618;84;21666;-92
2021/01/21 04:25:37;;;;;;;54.03;30.48;;;;;;;-2.01;81.96;97983.23;2112772;84;21583;-92
2021/01/21 04:28:39;;;;;;;54.13;28.47;;;;;;;-2.01;81.99;97983.70;2182207;81;21313;-92
2021/01/21 04:31:40;;;;;;;59.10;28.07;;;;;;;-2.01;82.07;97979.38;2182487;81;21325;-91
2021/01/21 04:34:42;;;;;;;51.15;28.02;;;;;;;-1.96;82.25;97979.47;2123713;84;21162;-91
2021/01/21 04:37:44;;;;;;;48.83;26.45;;;;;;;-1.93;82.28;97974.09;2112553;84;21185;-92
2021/01/21 04:40:45;;;;;;;47.90;25.17;;;;;;;-1.94;82.32;97967.34;2182141;81;21281;-92
2021/01/21 04:43:47;;;;;;;50.50;28.80;;;;;;;-1.95;82.35;97972.13;2182210;81;21333;-94
2021/01/21 04:46:48;;;;;;;50.90;26.30;;;;;;;-1.96;82.36;97971.31;2123510;84;21146;-92
2021/01/21 04:49:50;;;;;;;51.60;27.10;;;;;;;-1.97;82.39;97967.59;2112760;84;21173;-92
2021/01/21 04:52:51;;;;;;;53.48;29.20;;;;;;;-1.97;82.34;97967.11;2182165;81;21281;-91
2021/01/21 04:55:53;;;;;;;49.93;27.45;;;;;;;-1.94;82.38;97970.72;2182337;82;21614;-91
2021/01/21 04:58:55;;;;;;;52.53;26.65;;;;;;;-1.94;82.29;97978.41;2123908;84;21142;-94
2021/01/21 05:01:57;;;;;;;47.80;27.70;;;;;;;-1.95;82.19;97969.09;2112943;84;21194;-93
2021/01/21 05:04:58;;;;;;;50.12;27.60;;;;;;;-1.93;82.22;97972.34;2182736;81;21324;-94
2021/01/21 05:08:00;;;;;;;51.20;28.83;;;;;;;-1.90;82.42;97964.89;2182870;81;21289;-93
2021/01/21 05:11:01;;;;;;;49.00;26.93;;;;;;;-1.86;82.39;97973.97;2124376;84;21134;-94
2021/01/21 05:14:03;;;;;;;48.17;25.57;;;;;;;-1.85;82.21;97977.70;2116504;84;21292;-93
2021/01/21 05:17:04;;;;;;;45.70;26.48;;;;;;;-1.83;82.04;97978.42;2186886;80;21123;-94
2021/01/21 05:20:06;;;;;;;57.83;29.65;;;;;;;-1.81;82.11;97977.83;2186788;81;21523;-92
2021/01/21 05:23:07;;;;;;;48.70;27.58;;;;;;;-1.77;82.00;97971.97;2123888;84;21138;-92
2021/01/21 05:26:09;;;;;;;52.67;27.95;;;;;;;-1.78;81.91;97969.88;2113097;84;21210;-93
2021/01/21 05:29:10;;;;;;;53.92;28.52;;;;;;;-1.76;81.95;97973.13;2182860;81;21166;-94
2021/01/21 05:32:12;;;;;;;51.65;28.23;;;;;;;-1.78;81.74;97975.01;2161428;82;21284;-90
2021/01/21 05:35:14;;;;;;;60.10;31.30;;;;;;;-1.79;81.55;97974.66;2186720;80;21362;-90
2021/01/21 05:38:16;;;;;;;51.33;27.60;;;;;;;-1.81;81.62;97980.39;2186768;80;21162;-92
2021/01/21 05:41:17;;;;;;;50.73;27.90;;;;;;;-1.83;81.53;97972.44;2188290;81;21285;-96
2021/01/21 05:44:21;;;;;;;49.40;26.82;;;;;;;-1.84;81.58;97974.66;2184700;81;21639;-95
2021/01/21 05:47:22;;;;;;;50.80;27.50;;;;;;;-1.86;81.60;97968.84;2186470;81;21273;-93
2021/01/21 05:50:24;;;;;;;52.90;27.42;;;;;;;-1.86;81.60;97970.12;2185431;81;21139;-93
2021/01/21 05:53:25;;;;;;;48.50;27.35;;;;;;;-1.90;81.60;97975.97;2185773;81;21295;-94
2021/01/21 05:56:27;;;;;;;50.52;28.40;;;;;;;-1.94;81.62;97971.19;2188696;81;21268;-87
2021/01/21 05:59:29;;;;;;;50.52;28.85;;;;;;;-1.94;81.73;97970.72;2188759;81;21166;-87
2021/01/21 06:02:30;;;;;;;52.60;28.60;;;;;;;-1.97;81.71;97968.87;2188586;81;21293;-88
2021/01/21 06:05:32;;;;;;;52.62;29.37;;;;;;;-2.00;81.84;97976.34;2133021;83;21320;-91
2021/01/21 06:08:36;;;;;;;55.23;29.10;;;;;;;-1.99;81.95;97972.84;2124150;83;21146;-89
2021/01/21 06:11:50;;;;;;;53.70;29.00;;;;;;;-2.01;82.17;97969.11;2131239;84;21160;-90
2021/01/21 06:14:52;;;;;;;47.95;26.87;;;;;;;-1.98;82.22;97964.67;2130945;84;21179;-89
2021/01/21 06:17:56;;;;;;;46.37;27.00;;;;;;;-1.96;82.13;97966.64;2131113;84;21744;-90
2021/01/21 06:21:07;;;;;;;52.62;27.90;;;;;;;-1.95;82.09;97967.80;2130948;84;21179;-94
2021/01/21 06:24:09;;;;;;;51.33;27.25;;;;;;;-1.93;81.98;97968.97;2126517;84;21162;-90
2021/01/21 06:27:12;;;;;;;45.03;26.30;;;;;;;-1.92;82.00;97971.44;2130955;84;21308;-91
2021/01/21 06:30:13;;;;;;;46.63;25.48;;;;;;;-1.91;82.16;97970.97;2130755;84;21295;-87
2021/01/21 06:33:15;;;;;;;43.78;25.43;;;;;;;-1.91;82.21;97980.77;2104147;84;21641;-88
2021/01/21 06:36:16;;;;;;;45.33;26.30;;;;;;;-1.90;82.24;97983.67;2130661;84;21189;-87
2021/01/21 06:39:18;;;;;;;44.73;26.10;;;;;;;-1.92;82.32;97981.70;2130260;84;21185;-88
2021/01/21 06:42:19;;;;;;;49.00;26.30;;;;;;;-1.92;82.17;97977.01;2130616;84;21649;-87
2021/01/21 06:45:21;;;;;;;47.40;26.55;;;;;;;-1.95;82.37;97975.97;2130422;84;21181;-87
2021/01/21 06:48:22;;;;;;;47.13;27.42;;;;;;;-1.96;82.47;97982.05;2130810;84;21343;-87
2021/01/21 06:51:24;;;;;;;45.17;25.95;;;;;;;-1.92;82.55;97983.42;2130669;84;22113;-88
2021/01/21 06:54:25;;;;;;;43.70;25.40;;;;;;;-1.87;82.50;97988.55;2130399;84;21549;-87
2021/01/21 06:57:27;;;;;;;52.67;26.77;;;;;;;-1.81;82.49;97985.99;2130519;84;21169;-87
2021/01/21 07:00:28;;;;;;;47.50;27.25;;;;;;;-1.76;82.48;97978.73;2130615;84;21185;-88
2021/01/21 07:03:30;;;;;;;49.83;28.57;;;;;;;-1.72;82.48;97990.41;2130286;84;21181;-87
2021/01/21 07:06:32;;;;;;;52.17;26.37;;;;;;;-1.67;82.40;97987.00;2130387;84;21160;-87
2021/01/21 07:09:33;;;;;;;49.60;29.12;;;;;;;-1.61;82.55;97990.38;2130146;84;21151;-89
2021/01/21 07:12:39;;;;;;;48.02;26.97;;;;;;;-1.55;82.63;97979.63;2131178;84;21181;-96
2021/01/21 07:15:45;;;;;;;45.70;27.40;;;;;;;-1.48;82.56;97969.67;2104315;84;21189;-95
2021/01/21 07:18:48;;;;;;;50.65;29.25;;;;;;;-1.41;82.46;97970.81;2103890;84;21312;-95
2021/01/21 07:21:52;;;;;;;47.30;26.35;;;;;;;-1.33;82.45;97972.78;2130962;82;21185;-96
2021/01/21 07:28:25;;;;;;;48.73;28.45;;;;;;;-1.19;82.23;97977.17;2115318;83;21280;-92
2021/01/21 07:31:27;;;;;;;49.33;27.95;;;;;;;-1.12;82.17;97979.22;2104435;84;21161;-91
2021/01/21 07:34:29;;;;;;;45.95;26.00;;;;;;;-1.05;82.15;97972.18;2131294;84;21312;-91
2021/01/21 07:37:34;;;;;;;43.38;25.35;;;;;;;-0.96;82.20;97969.33;2130672;84;21185;-93
2021/01/21 07:40:35;;;;;;;42.95;25.25;;;;;;;-0.87;82.05;97970.68;2131091;83;21716;-90
2021/01/21 07:43:39;;;;;;;41.18;24.35;;;;;;;-0.74;82.06;97970.95;2131232;84;21201;-92
2021/01/21 07:46:42;;;;;;;36.08;23.83;;;;;;;-0.66;81.99;97967.27;2131854;84;21280;-95
2021/01/21 07:49:43;;;;;;;41.18;24.67;;;;;;;-0.57;81.92;97968.61;2131209;84;21272;-92
2021/01/21 07:52:47;;;;;;;39.60;23.73;;;;;;;-0.48;81.86;97958.50;2131104;84;21272;-92
2021/01/21 07:55:49;;;;;;;42.48;24.77;;;;;;;-0.41;81.73;97963.01;2130627;84;21174;-89
2021/01/21 07:58:50;;;;;;;45.40;25.90;;;;;;;-0.35;81.66;97966.36;2131033;84;21181;-90
2021/01/21 08:01:52;;;;;;;42.95;25.80;;;;;;;-0.27;81.61;97963.15;2130819;84;21197;-89
2021/01/21 08:04:59;;;;;;;39.73;25.45;;;;;;;-0.20;81.63;97959.56;2131845;84;21268;-94
2021/01/21 08:08:03;;;;;;;40.73;26.30;;;;;;;-0.11;81.53;97960.88;2133131;82;21133;-91
2021/01/21 08:11:07;;;;;;;46.75;26.60;;;;;;;-0.01;81.41;97960.91;2135541;81;21248;-92
2021/01/21 08:14:09;;;;;;;45.75;27.95;;;;;;;0.07;81.27;97953.82;2135506;81;21272;-90
2021/01/21 08:17:10;;;;;;;42.50;26.93;;;;;;;0.20;81.23;97954.41;2133767;84;21296;-89
2021/01/21 08:20:12;;;;;;;46.05;27.10;;;;;;;0.28;81.04;97953.28;2130516;84;21276;-90
2021/01/21 08:23:15;;;;;;;51.65;29.75;;;;;;;0.37;81.01;97949.91;2131041;84;21138;-89
2021/01/21 08:26:17;;;;;;;46.83;27.65;;;;;;;0.51;80.98;97946.91;2131003;84;21156;-91
2021/01/21 08:29:19;;;;;;;45.23;28.12;;;;;;;0.61;80.83;97948.68;2131319;83;21177;-89
2021/01/21 08:32:21;;;;;;;48.95;27.65;;;;;;;0.70;80.54;97945.29;2135194;81;21309;-87
2021/01/21 08:35:22;;;;;;;45.12;28.77;;;;;;;0.76;80.10;97942.18;2134690;84;21165;-87
2021/01/21 08:38:24;;;;;;;50.65;30.20;;;;;;;0.76;80.16;97939.12;2134680;84;21161;-89
2021/01/21 08:41:25;;;;;;;41.40;26.90;;;;;;;0.79;80.20;97941.42;2132395;84;21193;-90
2021/01/21 08:44:27;;;;;;;45.55;26.85;;;;;;;0.83;79.94;97943.27;2131237;84;21161;-90
2021/01/21 08:47:29;;;;;;;44.58;27.02;;;;;;;0.82;79.92;97931.30;2131162;84;21211;-94
2021/01/21 08:50:30;;;;;;;49.60;28.42;;;;;;;0.82;79.96;97934.72;2130539;84;21153;-90
2021/01/21 08:53:32;;;;;;;46.50;28.73;;;;;;;0.87;80.00;97935.59;2131289;84;21208;-91
2021/01/21 08:56:33;;;;;;;44.65;27.70;;;;;;;0.94;80.02;97937.14;2130871;84;21302;-89
2021/01/21 08:59:35;;;;;;;46.70;28.27;;;;;;;1.04;79.86;97946.49;2130715;84;21577;-91
2021/01/21 09:02:37;;;;;;;48.80;28.25;;;;;;;1.09;79.79;97951.22;2132016;84;21311;-93
2021/01/21 09:05:41;;;;;;;45.78;28.83;;;;;;;1.19;79.67;97958.94;2131181;82;21606;-89
2021/01/21 09:08:42;;;;;;;45.70;28.17;;;;;;;1.32;79.62;97954.31;2132307;84;21177;-92
2021/01/21 09:11:44;;;;;;;42.65;27.22;;;;;;;1.42;79.51;97958.48;2132522;84;21308;-92
2021/01/21 09:14:45;;;;;;;53.23;30.92;;;;;;;1.53;79.40;97958.79;2131365;84;21137;-92
2021/01/21 09:17:47;;;;;;;47.88;29.02;;;;;;;1.65;79.45;97942.67;2131402;84;21616;-94
2021/01/21 09:20:51;;;;;;;47.78;29.25;;;;;;;1.80;79.17;97941.71;2130673;84;21170;-95
2021/01/21 09:23:55;;;;;;;42.40;27.22;;;;;;;1.85;79.07;97941.63;2131860;84;21194;-93
2021/01/21 09:27:01;;;;;;;48.42;28.60;;;;;;;1.91;78.92;97944.91;2131568;84;21337;-92
2021/01/21 09:30:04;;;;;;;50.73;29.57;;;;;;;1.98;78.88;97938.70;2131321;84;21150;-93
2021/01/21 09:33:05;;;;;;;57.00;32.67;;;;;;;2.01;78.66;97930.66;2131239;84;21150;-93
2021/01/21 09:36:07;;;;;;;46.88;29.07;;;;;;;2.08;78.40;97927.02;2131733;84;21732;-92
2021/01/21 09:39:09;;;;;;;43.50;27.48;;;;;;;2.11;78.26;97921.59;2132802;82;21356;-90
2021/01/21 09:42:10;;;;;;;49.30;30.65;;;;;;;2.13;78.29;97914.02;2092743;85;21190;-90
2021/01/21 09:45:12;;;;;;;50.58;29.40;;;;;;;2.16;78.41;97910.33;2130767;84;21173;-91
2021/01/21 09:48:13;;;;;;;49.45;31.45;;;;;;;2.16;78.18;97914.20;2091957;85;21146;-91
2021/01/21 09:51:15;;;;;;;45.10;29.45;;;;;;;2.17;78.11;97898.55;2127994;84;21325;-93
2021/01/21 09:54:17;;;;;;;46.95;30.55;;;;;;;2.22;78.02;97892.96;2090459;85;21194;-91
2021/01/21 09:57:18;;;;;;;47.30;29.37;;;;;;;2.28;78.13;97889.29;2127494;84;21205;-90
2021/01/21 10:00:20;;;;;;;56.53;33.15;;;;;;;2.34;78.04;97885.31;2090864;85;21186;-94
2021/01/21 10:03:22;;;;;;;53.40;31.42;;;;;;;2.40;78.04;97891.67;2126967;84;21661;-88
2021/01/21 10:06:24;;;;;;;57.35;33.25;;;;;;;2.45;78.08;97896.72;2090655;85;21591;-90
2021/01/21 10:09:25;;;;;;;53.65;33.80;;;;;;;2.49;77.99;97888.20;2127065;84;21307;-91
2021/01/21 10:12:28;;;;;;;50.63;31.87;;;;;;;2.51;77.74;97879.34;2089880;85;21650;-89
2021/01/21 10:15:29;;;;;;;50.73;32.33;;;;;;;2.54;77.57;97880.80;2127032;84;21621;-89
2021/01/21 10:18:31;;;;;;;56.23;34.08;;;;;;;2.59;77.59;97882.47;2090145;85;21329;-92
2021/01/21 10:21:32;;;;;;;55.30;32.03;;;;;;;2.67;77.69;97886.90;2127112;84;21202;-92
2021/01/21 10:24:38;;;;;;;41.70;27.07;;;;;;;2.74;77.63;97881.44;2090121;85;21634;-94
2021/01/21 10:27:48;;;;;;;52.00;30.52;;;;;;;2.82;77.45;97877.14;2127856;84;21150;-91
2021/01/21 10:30:49;;;;;;;44.15;27.87;;;;;;;2.89;77.49;97879.95;2090031;85;21312;-89
2021/01/21 10:33:51;;;;;;;43.98;28.73;;;;;;;2.95;77.31;97877.25;2127142;84;21320;-88
2021/01/21 10:36:53;;;;;;;48.52;28.92;;;;;;;2.99;77.31;97872.90;2089950;85;21304;-89
2021/01/21 10:39:55;;;;;;;46.90;28.83;;;;;;;3.06;77.17;97870.52;2126123;83;21613;-91
2021/01/21 10:42:58;;;;;;;49.15;29.67;;;;;;;3.13;76.86;97864.59;2124091;84;21198;-90
2021/01/21 10:46:04;;;;;;;48.20;30.35;;;;;;;3.24;76.86;97871.28;2123865;84;21169;-95
2021/01/21 10:49:10;;;;;;;48.38;30.08;;;;;;;3.25;76.92;97852.68;2124314;84;21134;-90
2021/01/21 10:52:13;;;;;;;46.23;27.02;;;;;;;3.40;76.97;97861.02;2124451;84;21261;-93
2021/01/21 10:55:16;;;;;;;51.75;31.35;;;;;;;3.44;76.31;97870.56;2124585;83;21174;-90
2021/01/21 10:58:20;;;;;;;50.03;31.27;;;;;;;3.49;76.52;97870.92;2124817;84;21329;-91
2021/01/21 11:01:24;;;;;;;50.43;29.95;;;;;;;3.58;76.57;97870.47;2124867;84;22356;-91
2021/01/21 11:04:26;;;;;;;44.40;28.32;;;;;;;3.71;76.47;97874.72;2125406;84;21289;-91
2021/01/21 11:07:27;;;;;;;47.55;28.90;;;;;;;3.82;76.29;97874.91;2124465;84;21150;-93
2021/01/21 11:10:32;;;;;;;47.70;30.10;;;;;;;3.88;76.18;97877.70;2124994;84;21181;-90
2021/01/21 11:13:36;;;;;;;43.52;29.45;;;;;;;3.94;76.16;97877.08;2125202;83;21199;-91
2021/01/21 11:16:39;;;;;;;45.58;29.02;;;;;;;4.01;75.95;97866.87;2100987;84;21330;-91
2021/01/21 11:19:41;;;;;;;43.33;28.15;;;;;;;4.05;75.99;97867.38;2124624;84;21744;-94
2021/01/21 11:22:42;;;;;;;42.20;27.00;;;;;;;4.09;75.79;97860.90;2099545;84;21150;-95
2021/01/21 11:25:44;;;;;;;45.40;28.67;;;;;;;4.13;75.67;97860.92;2102567;83;21272;-93
2021/01/21 11:28:46;;;;;;;47.15;28.95;;;;;;;4.15;75.80;97858.49;2127784;83;21285;-93
2021/01/21 11:31:47;;;;;;;44.05;28.07;;;;;;;4.20;75.72;97851.52;2128605;84;21199;-91
2021/01/21 11:35:00;;;;;;;46.80;29.85;;;;;;;4.23;75.62;97848.63;2127333;84;21744;-91
2021/01/21 11:38:06;;;;;;;49.58;30.62;;;;;;;4.26;75.61;97855.59;2124844;84;21634;-92
2021/01/21 11:41:11;;;;;;;46.68;29.80;;;;;;;4.35;75.49;97854.30;2128661;83;21732;-93
